Terminal Aerodrome Forecast
Issued by NWS

Home | Current Version | Previous Version | Text Only | Print | Product List | Glossary On
Versions: 1 2 3 4 5 6 7 8 9 10 11 12 13 14 15 16 17 18
000
FTUS45 KGGW 042300
TAFSDY
TAF
KSDY 042323Z 0500/0524 VRB06KT 6SM HZ SKC
     FM050200 35012KT P6SM SKC
     FM051000 04012KT P6SM -SHRA BKN060
     FM052000 36015KT P6SM BKN100
      AMD LTD TO CLD VIS AND WIND=

USA.gov is the U.S. government's official web portal to all federal, state and local government web resources and services.